createdAt,value
2023-01-26T00:07:57.216Z,0.54
2023-01-26T00:17:57.332Z,0.52
2023-01-26T00:27:57.223Z,0.46
2023-01-26T00:37:57.272Z,0.43
2023-01-26T00:47:57.226Z,0.4
2023-01-26T00:57:57.262Z,0.36
2023-01-26T01:07:57.258Z,0.34
2023-01-26T01:17:57.272Z,0.37
2023-01-26T01:27:57.261Z,0.33
2023-01-26T01:37:57.306Z,0.45
2023-01-26T01:47:57.285Z,0.5
2023-01-26T01:57:57.329Z,0.56
2023-01-26T02:07:57.277Z,0.61
2023-01-26T02:17:57.296Z,0.63
2023-01-26T02:27:57.284Z,0.65
2023-01-26T02:37:57.348Z,0.63
2023-01-26T02:47:57.323Z,0.61
2023-01-26T02:57:57.378Z,0.62
2023-01-26T03:07:57.294Z,0.62
2023-01-26T03:17:57.350Z,0.58
2023-01-26T03:27:57.352Z,0.58
2023-01-26T03:37:57.346Z,0.57
2023-01-26T03:47:57.322Z,0.62
2023-01-26T03:57:57.349Z,0.63
2023-01-26T04:07:57.338Z,0.62
2023-01-26T04:17:57.388Z,0.59
2023-01-26T04:27:57.372Z,0.59
2023-01-26T04:37:57.429Z,0.6
2023-01-26T04:47:57.358Z,0.6
2023-01-26T04:57:57.388Z,0.59
2023-01-26T05:07:57.345Z,0.56
2023-01-26T05:17:57.408Z,0.55
2023-01-26T05:27:57.369Z,0.47
2023-01-26T05:37:57.404Z,0.46
2023-01-26T05:47:57.410Z,0.4
2023-01-26T05:57:57.432Z,0.34
2023-01-26T06:07:57.425Z,0.31
2023-01-26T06:17:57.455Z,0.27
2023-01-26T06:27:57.407Z,0.29
2023-01-26T06:37:57.448Z,0.31
2023-01-26T06:47:57.411Z,0.31
2023-01-26T06:57:57.473Z,0.29
2023-01-26T07:07:57.426Z,0.32
2023-01-26T07:17:57.481Z,0.32
2023-01-26T07:27:57.466Z,0.26
2023-01-26T07:37:57.482Z,0.29
2023-01-26T07:47:57.450Z,0.36
2023-01-26T07:57:57.481Z,0.34
2023-01-26T08:07:57.497Z,0.4
2023-01-26T08:17:57.507Z,0.58
2023-01-26T08:27:57.467Z,0.71
2023-01-26T08:37:57.505Z,0.81
2023-01-26T08:47:57.529Z,0.92
2023-01-26T08:57:57.525Z,0.99
2023-01-26T09:07:57.482Z,1.24
2023-01-26T09:17:59.827Z,1.33
2023-01-26T09:27:57.518Z,1.27
2023-01-26T09:37:57.554Z,1.36
2023-01-26T09:47:57.518Z,1.54
2023-01-26T09:57:57.549Z,1.57
2023-01-26T10:07:57.537Z,1.58
2023-01-26T10:17:57.569Z,1.59
2023-01-26T10:27:57.556Z,1.65
2023-01-26T10:37:57.594Z,1.86
2023-01-26T10:47:57.662Z,1.83
2023-01-26T10:57:57.584Z,1.82
2023-01-26T11:07:57.524Z,2.01
2023-01-26T11:17:57.576Z,2.03
2023-01-26T11:27:57.552Z,2.18
2023-01-26T11:37:57.593Z,2.27
2023-01-26T11:47:57.570Z,2.54
2023-01-26T11:57:57.594Z,2.38
2023-01-26T12:07:57.589Z,2.08
2023-01-26T12:17:57.615Z,2.23
2023-01-26T12:27:57.571Z,2.31
2023-01-26T12:38:08.775Z,2.42
2023-01-26T12:47:57.614Z,2.45
2023-01-26T12:57:57.612Z,2.39
2023-01-26T13:07:57.567Z,2.55
2023-01-26T13:17:57.624Z,2.67
2023-01-26T13:27:57.627Z,2.47
2023-01-26T13:37:57.647Z,2.45
2023-01-26T13:47:57.623Z,2.38
2023-01-26T13:57:57.636Z,2.15
2023-01-26T14:07:57.636Z,1.91
2023-01-26T14:17:57.642Z,1.72
2023-01-26T14:27:57.633Z,1.64
2023-01-26T14:37:57.675Z,1.59
2023-01-26T14:47:57.605Z,1.5
2023-01-26T14:57:57.676Z,1.37
2023-01-26T15:07:57.652Z,1.22
2023-01-26T15:17:57.652Z,1.2
2023-01-26T15:27:58.844Z,1.07
2023-01-26T15:37:57.680Z,0.97
2023-01-26T15:47:57.668Z,0.87
2023-01-26T15:57:57.664Z,0.82
2023-01-26T16:07:57.697Z,0.77
2023-01-26T16:17:57.701Z,0.68
2023-01-26T16:27:57.686Z,0.61
2023-01-26T16:37:57.720Z,0.54
2023-01-26T16:47:57.702Z,0.52
2023-01-26T16:57:57.734Z,0.48
2023-01-26T17:07:57.699Z,0.49
2023-01-26T17:17:57.711Z,0.46
2023-01-26T17:27:57.724Z,0.41
2023-01-26T17:37:57.742Z,0.4
2023-01-26T17:47:57.737Z,0.36
2023-01-26T17:57:57.748Z,0.3
2023-01-26T18:07:57.745Z,0.31
2023-01-26T18:17:57.798Z,0.28
2023-01-26T18:27:57.746Z,0.26
2023-01-26T18:37:57.777Z,0.21
2023-01-26T18:47:57.792Z,0.18
2023-01-26T18:57:57.786Z,0.12
2023-01-26T19:07:57.798Z,0.12
2023-01-26T19:17:57.800Z,0.13
2023-01-26T19:27:57.785Z,0.08
2023-01-26T19:37:57.847Z,0.08
2023-01-26T19:47:57.805Z,-0.01
2023-01-26T19:57:57.864Z,-0.06
2023-01-26T20:07:57.793Z,-0.09
2023-01-26T20:17:57.820Z,-0.16
2023-01-26T20:27:57.827Z,-0.2
2023-01-26T20:37:57.857Z,-0.17
2023-01-26T20:47:57.822Z,-0.18
2023-01-26T20:57:57.892Z,-0.13
2023-01-26T21:07:57.872Z,-0.13
2023-01-26T21:17:57.896Z,-0.16
2023-01-26T21:27:57.873Z,-0.12
2023-01-26T21:37:57.933Z,-0.16
2023-01-26T21:47:57.893Z,-0.23
2023-01-26T21:57:57.891Z,-0.23
2023-01-26T22:07:57.893Z,-0.34
2023-01-26T22:17:57.930Z,-0.36
2023-01-26T22:27:57.927Z,-0.31
2023-01-26T22:37:57.918Z,-0.29
2023-01-26T22:47:57.928Z,-0.35
2023-01-26T22:57:57.949Z,-0.32
2023-01-26T23:07:57.920Z,-0.39
2023-01-26T23:17:57.949Z,-0.49
2023-01-26T23:27:57.974Z,-0.5
2023-01-26T23:37:57.999Z,-0.55
2023-01-26T23:47:57.982Z,-0.61
2023-01-26T23:57:57.973Z,-0.62
